Time;durP1;ratioP1;P1;durP2;ratioP2;P2;SDS_P1;SDS_P2;PMS_P1;PMS_P2;Temp;Humidity;BMP_temperature;BMP_pressure;BME280_temperature;BME280_humidity;BME280_pressure;Samples;Min_cycle;Max_cycle;Signal;HPM_P1;HPM_P2
2021/07/08 00:04:27;;;;;;;;;;;16.80;99.90;;;15.83;100.00;95971.69;10499413;28;1971;-81
2021/07/08 00:09:29;;;;;;;;;;;16.80;99.90;;;15.84;100.00;95964.34;10500221;28;1749;-81
2021/07/08 00:14:32;;;;;;;;;;;16.80;99.90;;;15.78;100.00;95971.00;10492875;28;2282;-81
2021/07/08 00:19:35;;;;;;;;;;;16.80;99.90;;;15.71;100.00;95949.72;10516048;28;1632;-82
2021/07/08 00:24:38;;;;;;;;;;;16.70;99.90;;;15.64;100.00;95950.09;10495588;28;2373;-81
2021/07/08 00:29:40;;;;;;;;;;;16.60;99.90;;;15.62;100.00;95936.06;10493475;28;2182;-81
2021/07/08 00:34:43;;;;;;;;;;;16.60;99.90;;;15.64;100.00;95943.88;10497678;28;2525;-81
2021/07/08 00:39:46;;;;;;;;;;;16.60;99.90;;;15.58;100.00;95932.31;10485591;28;2467;-81
2021/07/08 00:44:48;;;;;;;;;;;16.60;99.90;;;15.60;100.00;95934.75;10494740;28;2128;-83
2021/07/08 00:49:51;;;;;;;;;;;16.60;99.90;;;15.61;100.00;95936.34;10492338;28;2601;-83
2021/07/08 00:54:54;;;;;;;;;;;16.60;99.90;;;15.64;100.00;95949.31;10499906;28;2423;-81
2021/07/08 00:59:57;;;;;;;;;;;16.60;99.90;;;15.72;100.00;95950.53;10500399;28;2041;-80
2021/07/08 01:04:59;;;;;;;;;;;16.60;99.90;;;15.82;100.00;95953.03;10506789;28;2428;-81
2021/07/08 01:10:02;;;;;;;;;;;16.70;99.90;;;15.71;100.00;95951.63;10485715;28;2578;-82
2021/07/08 01:15:05;;;;;;;;;;;16.70;99.90;;;15.77;100.00;95953.91;10488535;28;2575;-84
2021/07/08 01:20:07;;;;;;;;;;;16.70;99.90;;;15.72;100.00;95950.53;10491291;28;2586;-81
2021/07/08 01:25:10;;;;;;;;;;;16.70;99.90;;;15.80;100.00;95947.91;10498599;28;2431;-84
2021/07/08 01:30:13;;;;;;;;;;;16.70;99.90;;;15.71;100.00;95932.66;10491509;28;2500;-83
2021/07/08 01:35:16;;;;;;;;;;;16.70;99.90;;;15.72;100.00;95923.44;10485698;28;2591;-84
2021/07/08 01:40:18;;;;;;;;;;;16.70;99.90;;;15.64;100.00;95927.63;10501566;28;2499;-84
2021/07/08 01:45:21;;;;;;;;;;;16.70;99.90;;;15.73;100.00;95903.34;10486914;28;2186;-82
2021/07/08 01:50:24;;;;;;;;;;;16.70;99.90;;;15.62;100.00;95887.28;10495758;28;2614;-83
2021/07/08 01:55:27;;;;;;;;;;;16.60;99.90;;;15.64;100.00;95895.91;10498635;28;2622;-82
2021/07/08 02:00:29;;;;;;;;;;;16.60;99.90;;;15.70;100.00;95882.25;10480124;28;2609;-82
2021/07/08 02:05:32;;;;;;;;;;;16.60;99.90;;;15.68;100.00;95864.41;10487240;28;2128;-82
2021/07/08 02:10:35;;;;;;;;;;;16.70;99.90;;;15.66;100.00;95877.47;10494988;28;2649;-81
2021/07/08 02:15:38;;;;;;;;;;;16.60;99.90;;;15.69;100.00;95884.19;10466806;28;2549;-84
2021/07/08 02:20:40;;;;;;;;;;;16.60;99.90;;;15.82;100.00;95880.63;10512015;28;2847;-82
2021/07/08 02:25:43;;;;;;;;;;;16.70;99.90;;;15.92;100.00;95871.50;10532774;28;2491;-82
2021/07/08 02:30:46;;;;;;;;;;;16.80;99.90;;;15.86;100.00;95881.66;10491831;28;2416;-83
2021/07/08 02:35:49;;;;;;;;;;;16.80;99.90;;;15.87;100.00;95879.75;10509784;28;2175;-83
2021/07/08 02:40:51;;;;;;;;;;;16.80;99.90;;;16.06;100.00;95866.84;10505142;28;2833;-84
2021/07/08 02:45:54;;;;;;;;;;;16.90;99.90;;;16.04;100.00;95877.19;10531285;28;2854;-85
2021/07/08 02:50:57;;;;;;;;;;;16.90;99.90;;;16.11;100.00;95874.84;10523563;28;2533;-83
2021/07/08 02:56:00;;;;;;;;;;;17.00;99.90;;;16.20;100.00;95896.63;10508550;28;2687;-82
2021/07/08 03:01:04;;;;;;;;;;;17.00;99.90;;;16.26;100.00;95889.16;10500012;28;2068;-83
2021/07/08 03:06:07;;;;;;;;;;;17.10;99.90;;;16.24;100.00;95903.03;10515342;28;2462;-84
2021/07/08 03:11:10;;;;;;;;;;;17.10;99.90;;;16.28;100.00;95901.31;10512400;28;2918;-84
2021/07/08 03:16:13;;;;;;;;;;;17.10;99.90;;;16.31;100.00;95902.63;10504501;28;2008;-83
2021/07/08 03:21:16;;;;;;;;;;;17.20;99.90;;;16.26;100.00;95900.03;10499202;28;2402;-82
2021/07/08 03:26:19;;;;;;;;;;;17.20;99.90;;;16.23;100.00;95897.94;10529871;28;2431;-81
2021/07/08 03:31:22;;;;;;;;;;;17.20;99.90;;;16.30;100.00;95901.03;10536622;28;2508;-79
2021/07/08 03:36:25;;;;;;;;;;;17.20;99.90;;;16.37;100.00;95895.97;10508281;28;2109;-82
2021/07/08 03:41:28;;;;;;;;;;;17.30;99.90;;;16.28;100.00;95892.38;10508836;28;2586;-82
2021/07/08 03:46:30;;;;;;;;;;;17.30;99.90;;;16.26;100.00;95908.16;10486606;28;1983;-80
2021/07/08 03:51:34;;;;;;;;;;;17.20;99.90;;;16.43;100.00;95922.69;10495245;28;2151;-82
2021/07/08 03:56:36;;;;;;;;;;;17.30;99.90;;;16.46;100.00;95918.53;10504579;28;2523;-82
2021/07/08 04:01:39;;;;;;;;;;;17.30;99.90;;;16.40;100.00;95922.47;10484980;28;2173;-83
2021/07/08 04:06:42;;;;;;;;;;;17.30;99.90;;;16.40;100.00;95928.69;10476321;28;2538;-80
2021/07/08 04:11:45;;;;;;;;;;;17.30;99.90;;;16.25;100.00;95923.63;10497091;28;2511;-82
2021/07/08 04:16:55;;;;;;;;;;;17.30;99.90;;;16.30;100.00;95933.56;10496315;28;2282;-84
2021/07/08 04:21:58;;;;;;;;;;;17.20;99.90;;;16.34;100.00;95938.06;10473959;28;1977;-85
2021/07/08 04:27:01;;;;;;;;;;;17.20;99.90;;;16.41;100.00;95956.63;10496192;28;2515;-83
2021/07/08 04:32:04;;;;;;;;;;;17.30;99.90;;;16.49;100.00;95950.50;10500685;28;1970;-82
2021/07/08 04:37:06;;;;;;;;;;;17.30;99.90;;;16.49;100.00;95947.78;10497270;28;2353;-84
2021/07/08 04:42:10;;;;;;;;;;;17.40;99.90;;;16.39;100.00;95937.16;10496574;28;2037;-82
2021/07/08 04:47:13;;;;;;;;;;;17.30;99.90;;;16.32;100.00;95945.72;10494773;28;2096;-82
2021/07/08 04:52:16;;;;;;;;;;;17.30;99.90;;;16.20;100.00;95937.31;10492925;28;2282;-82
2021/07/08 04:57:18;;;;;;;;;;;17.20;99.90;;;16.04;100.00;95939.56;10499330;28;2540;-82
2021/07/08 05:02:21;;;;;;;;;;;17.10;99.90;;;16.16;100.00;95926.28;10529868;28;2530;-83
2021/07/08 05:07:24;;;;;;;;;;;17.10;99.90;;;16.07;100.00;95935.41;10494717;28;2255;-82
2021/07/08 05:12:27;;;;;;;;;;;17.00;99.90;;;15.97;100.00;95924.78;10496207;28;2090;-81
2021/07/08 05:17:30;;;;;;;;;;;17.00;99.90;;;15.99;100.00;95942.38;10505055;28;2626;-83
2021/07/08 05:22:33;;;;;;;;;;;16.90;99.90;;;16.01;100.00;95937.44;10502856;28;1880;-83
2021/07/08 05:27:36;;;;;;;;;;;17.00;99.90;;;16.04;100.00;95934.13;10494178;28;2363;-81
2021/07/08 05:32:39;;;;;;;;;;;17.00;99.90;;;16.16;100.00;95934.41;10488510;28;2343;-85
2021/07/08 05:37:42;;;;;;;;;;;17.10;99.90;;;16.17;100.00;95936.00;10475926;28;2336;-82
2021/07/08 05:42:45;;;;;;;;;;;17.10;99.90;;;16.32;100.00;95944.91;10484666;28;2361;-84
2021/07/08 05:47:47;;;;;;;;;;;17.20;99.90;;;16.26;100.00;95938.00;10489396;28;2355;-83
2021/07/08 05:52:51;;;;;;;;;;;17.20;99.90;;;16.37;100.00;95950.22;10485669;28;2190;-80
2021/07/08 05:57:55;;;;;;;;;;;17.30;99.90;;;16.40;100.00;95953.13;10498939;28;2264;-82
2021/07/08 06:02:58;;;;;;;;;;;17.30;99.90;;;16.47;100.00;95944.56;10505700;28;2016;-83
2021/07/08 06:08:03;;;;;;;;;;;17.30;99.90;;;16.61;100.00;95948.03;10488978;28;2290;-84
2021/07/08 06:13:06;;;;;;;;;;;17.40;99.90;;;16.77;100.00;95963.97;10488774;28;2222;-82
2021/07/08 06:18:09;;;;;;;;;;;17.50;99.90;;;16.86;100.00;95953.97;10504994;28;2325;-84
2021/07/08 06:23:12;;;;;;;;;;;17.60;99.90;;;16.90;100.00;95949.53;10505353;28;2283;-85
2021/07/08 06:28:15;;;;;;;;;;;17.70;99.90;;;16.85;100.00;95945.03;10506756;28;1977;-82
2021/07/08 06:33:18;;;;;;;;;;;17.80;99.90;;;17.17;100.00;95962.16;10517321;28;2205;-83
2021/07/08 06:38:21;;;;;;;;;;;17.80;99.90;;;17.22;100.00;95970.19;10520597;28;2348;-84
2021/07/08 06:43:24;;;;;;;;;;;18.00;99.90;;;17.05;100.00;95949.19;10499202;28;2277;-81
2021/07/08 06:48:27;;;;;;;;;;;18.00;99.90;;;17.13;100.00;95944.91;10525309;28;2209;-83
2021/07/08 06:53:30;;;;;;;;;;;18.00;99.90;;;17.13;100.00;95943.00;10521900;28;2383;-82
2021/07/08 06:58:33;;;;;;;;;;;18.00;99.90;;;17.20;100.00;95937.91;10488337;28;2372;-80
2021/07/08 07:03:36;;;;;;;;;;;18.00;99.90;;;17.41;100.00;95953.66;10516185;28;2459;-81
2021/07/08 07:08:38;;;;;;;;;;;18.10;99.90;;;17.51;100.00;95956.94;10512617;28;2272;-82
2021/07/08 07:13:41;;;;;;;;;;;18.20;99.90;;;17.69;100.00;95967.88;10484763;28;2226;-83
2021/07/08 07:18:44;;;;;;;;;;;18.30;99.90;;;17.91;100.00;95965.09;10491609;28;2264;-81
2021/07/08 07:23:47;;;;;;;;;;;18.40;99.90;;;17.68;100.00;95967.03;10483401;28;2383;-82
2021/07/08 07:28:49;;;;;;;;;;;18.60;99.90;;;17.87;100.00;95972.25;10486285;28;2300;-82
2021/07/08 07:33:52;;;;;;;;;;;18.60;99.90;;;17.96;100.00;95973.09;10488903;28;2242;-80
2021/07/08 07:38:57;;;;;;;;;;;18.70;99.90;;;18.03;100.00;95978.09;10504044;28;2384;-79
2021/07/08 07:44:00;;;;;;;;;;;18.70;99.90;;;18.05;100.00;95992.97;10491751;28;2421;-83
2021/07/08 07:49:11;;;;;;;;;;;18.80;99.90;;;18.04;100.00;95987.84;10503118;28;2268;-82
2021/07/08 07:54:15;;;;;;;;;;;18.80;99.90;;;17.85;100.00;95995.47;10472870;28;2178;-80
2021/07/08 07:59:29;;;;;;;;;;;18.70;99.90;;;17.83;100.00;95995.78;10467369;28;2375;-81
2021/07/08 08:04:41;;;;;;;;;;;18.60;99.90;;;17.99;100.00;95993.41;10480388;28;2407;-82
2021/07/08 08:09:44;;;;;;;;;;;18.60;99.90;;;18.09;100.00;95987.72;10485561;28;2314;-81
2021/07/08 08:14:47;;;;;;;;;;;18.70;99.90;;;18.08;100.00;95981.47;10492376;28;2426;-80
2021/07/08 08:19:54;;;;;;;;;;;18.80;99.90;;;18.14;100.00;95973.97;10491833;28;2340;-80
2021/07/08 08:24:57;;;;;;;;;;;19.00;99.90;;;18.49;100.00;95991.13;10484297;28;2396;-84
2021/07/08 08:30:00;;;;;;;;;;;19.10;99.90;;;18.98;99.90;95996.47;10491076;28;2737;-82
2021/07/08 08:35:03;;;;;;;;;;;19.40;99.90;;;19.03;96.63;96005.28;10492456;28;2289;-80
2021/07/08 08:40:06;;;;;;;;;;;19.60;99.90;;;19.05;97.73;95999.50;10490320;28;2740;-82
2021/07/08 08:45:12;;;;;;;;;;;19.70;99.90;;;19.07;96.95;96008.16;10496549;28;2262;-80
2021/07/08 08:50:14;;;;;;;;;;;19.80;99.90;;;19.10;97.25;96018.41;10493561;28;2631;-82
2021/07/08 08:55:17;;;;;;;;;;;19.80;99.90;;;18.99;97.04;96020.66;10495479;28;1883;-85
2021/07/08 09:00:20;;;;;;;;;;;19.70;99.90;;;18.98;96.95;96024.50;10488561;28;2646;-81
2021/07/08 09:05:23;;;;;;;;;;;19.70;99.90;;;19.04;97.46;96030.59;10502592;28;2344;-81
2021/07/08 09:10:26;;;;;;;;;;;19.80;99.90;;;18.88;97.19;96013.94;10504477;28;2665;-80
2021/07/08 09:15:29;;;;;;;;;;;19.90;99.90;;;18.86;100.00;96014.25;10467865;28;2722;-80
2021/07/08 09:20:38;;;;;;;;;;;19.80;99.90;;;18.69;100.00;96021.59;10492318;28;2395;-81
2021/07/08 09:25:42;;;;;;;;;;;19.70;99.90;;;18.71;100.00;96024.84;10489755;28;2300;-81
2021/07/08 09:30:48;;;;;;;;;;;19.60;99.90;;;18.85;98.90;96031.72;10487939;28;2375;-81
2021/07/08 09:35:50;;;;;;;;;;;19.60;99.90;;;19.05;97.35;96034.94;10489143;28;2227;-79
2021/07/08 09:40:54;;;;;;;;;;;19.70;99.90;;;19.06;96.91;95995.66;10483157;28;2344;-81
2021/07/08 09:45:57;;;;;;;;;;;19.80;99.90;;;20.04;91.34;95970.22;10485399;28;2335;-81
2021/07/08 09:51:00;;;;;;;;;;;20.20;99.90;;;20.50;86.89;95958.38;10506588;28;2277;-80
2021/07/08 09:56:10;;;;;;;;;;;20.70;99.90;;;20.31;87.84;95963.47;10501609;28;2305;-82
2021/07/08 10:01:13;;;;;;;;;;;20.90;99.90;;;20.72;85.88;95943.56;10505318;28;2324;-79
2021/07/08 10:06:16;;;;;;;;;;;21.10;99.90;;;20.98;82.85;95954.28;10473338;28;2281;-81
2021/07/08 10:11:19;;;;;;;;;;;21.50;99.90;;;20.97;84.66;95982.75;10491488;28;2317;-79
2021/07/08 10:16:22;;;;;;;;;;;21.60;99.90;;;20.69;84.91;95992.63;10480449;28;2339;-81
2021/07/08 10:21:29;;;;;;;;;;;21.50;99.90;;;20.43;86.44;95969.00;10473350;28;2399;-80
2021/07/08 10:26:32;;;;;;;;;;;21.30;99.90;;;20.72;84.99;95987.28;10491124;28;2321;-81
2021/07/08 10:31:35;;;;;;;;;;;21.30;99.90;;;20.58;85.00;95992.22;10501356;28;2381;-81
2021/07/08 10:36:43;;;;;;;;;;;21.30;99.90;;;20.37;86.93;95986.72;10468136;28;2440;-83
2021/07/08 10:41:56;;;;;;;;;;;21.20;99.90;;;20.69;84.73;95987.16;10493504;28;2089;-80
2021/07/08 10:46:59;;;;;;;;;;;21.30;99.90;;;20.93;85.38;95994.66;10467479;28;2257;-81
2021/07/08 10:52:04;;;;;;;;;;;21.40;99.90;;;21.28;83.49;95992.44;10471601;28;2299;-81
2021/07/08 10:57:12;;;;;;;;;;;21.80;99.90;;;21.31;81.45;95987.13;10488410;28;2328;-81
2021/07/08 11:02:15;;;;;;;;;;;22.00;99.90;;;21.15;79.13;95999.78;10505987;28;2328;-79
2021/07/08 11:07:18;;;;;;;;;;;21.90;99.90;;;21.41;78.95;95990.56;10482651;28;2412;-81
2021/07/08 11:12:21;;;;;;;;;;;22.00;99.90;;;21.80;76.62;95980.94;10487266;28;2480;-81
2021/07/08 11:17:26;;;;;;;;;;;22.20;99.90;;;21.97;76.52;95999.91;10502514;28;2363;-81
2021/07/08 11:22:33;;;;;;;;;;;22.50;99.90;;;21.79;77.47;96002.03;10482138;28;2324;-80
2021/07/08 11:27:39;;;;;;;;;;;22.60;99.90;;;21.26;80.67;96006.44;10483686;28;2416;-80
2021/07/08 11:32:43;;;;;;;;;;;22.50;99.90;;;20.86;82.80;96014.34;10487637;28;2379;-81
2021/07/08 11:37:46;;;;;;;;;;;22.00;99.90;;;20.23;86.17;96013.44;10480598;28;2329;-80
2021/07/08 11:42:49;;;;;;;;;;;21.50;99.90;;;19.68;90.97;96008.88;10472656;28;2686;-80
2021/07/08 11:47:52;;;;;;;;;;;21.00;99.90;;;19.44;92.39;96014.84;10488484;28;2366;-80
2021/07/08 11:52:54;;;;;;;;;;;20.60;99.90;;;19.52;92.43;96007.75;10492600;28;2502;-79
2021/07/08 11:57:59;;;;;;;;;;;20.40;99.90;;;19.74;91.39;96010.28;10486914;28;1983;-77
2021/07/08 12:03:01;;;;;;;;;;;20.50;99.90;;;19.80;90.30;96022.63;10491778;28;2265;-81
2021/07/08 12:08:06;;;;;;;;;;;20.50;99.90;;;19.78;90.17;96035.78;10488340;28;2345;-82
2021/07/08 12:13:09;;;;;;;;;;;20.60;99.90;;;19.49;90.91;96047.38;10487858;28;2547;-81
2021/07/08 12:18:12;;;;;;;;;;;20.50;99.90;;;19.43;91.57;96100.47;10503069;28;2249;-80
2021/07/08 12:23:15;;;;;;;;;;;20.40;99.90;;;19.21;94.11;96136.84;10493781;28;2361;-80
2021/07/08 12:28:17;;;;;;;;;;;20.20;99.90;;;18.86;100.00;96109.59;10494660;28;2407;-80
2021/07/08 12:33:20;;;;;;;;;;;20.10;99.90;;;18.46;100.00;96122.44;10511331;28;2474;-79
2021/07/08 12:38:23;;;;;;;;;;;19.60;99.90;;;18.36;100.00;96106.38;10498062;28;2340;-80
2021/07/08 12:43:26;;;;;;;;;;;19.40;99.90;;;18.06;100.00;96083.53;10494595;28;2369;-80
2021/07/08 12:48:28;;;;;;;;;;;19.10;99.90;;;17.68;100.00;96086.66;10501355;28;2309;-80
2021/07/08 12:53:32;;;;;;;;;;;;;;;17.32;100.00;96115.84;10497382;28;2198;-79
2021/07/08 12:58:37;;;;;;;;;;;18.50;99.90;;;16.97;100.00;96110.13;10491243;28;2288;-81
2021/07/08 13:03:40;;;;;;;;;;;18.10;99.90;;;16.96;100.00;96146.53;10495756;28;2296;-79
2021/07/08 13:08:43;;;;;;;;;;;17.90;99.90;;;16.91;100.00;96165.66;10488538;28;2728;-81
2021/07/08 13:13:46;;;;;;;;;;;17.90;99.90;;;16.96;100.00;96119.38;10478663;28;2332;-79
2021/07/08 13:19:01;;;;;;;;;;;17.90;99.90;;;16.98;100.00;96060.94;10480829;28;2368;-80
2021/07/08 13:24:04;;;;;;;;;;;17.80;99.90;;;17.36;100.00;96062.47;10485508;28;2272;-81
2021/07/08 13:29:07;;;;;;;;;;;18.00;99.90;;;17.46;100.00;96063.03;10490522;28;2368;-81
2021/07/08 13:34:10;;;;;;;;;;;18.20;99.90;;;17.37;100.00;96031.47;10475357;28;2361;-80
2021/07/08 13:39:26;;;;;;;;;;;18.20;99.90;;;17.17;100.00;95984.69;10492753;28;2430;-79
2021/07/08 13:44:31;;;;;;;;;;;18.20;99.90;;;17.05;100.00;95930.16;10480292;28;2274;-80
2021/07/08 13:49:34;;;;;;;;;;;18.00;99.90;;;17.22;100.00;95913.13;10485409;28;2399;-80
2021/07/08 13:54:37;;;;;;;;;;;18.00;99.90;;;17.53;100.00;95953.88;10488229;28;2519;-81
2021/07/08 13:59:40;;;;;;;;;;;18.20;99.90;;;17.65;100.00;96022.06;10501334;28;2431;-80
2021/07/08 14:04:43;;;;;;;;;;;18.40;99.90;;;17.47;100.00;95936.13;10478501;28;2705;-81
2021/07/08 14:09:46;;;;;;;;;;;18.40;99.90;;;18.07;100.00;95890.09;10490416;28;2705;-79
2021/07/08 14:14:49;;;;;;;;;;;18.50;99.90;;;19.51;100.00;95935.28;10471537;28;2352;-81
2021/07/08 14:19:52;;;;;;;;;;;19.60;99.90;;;19.94;100.00;95925.00;10480769;28;2410;-80
2021/07/08 14:24:55;;;;;;;;;;;20.40;99.90;;;20.11;99.54;95904.19;10494622;28;2426;-79
2021/07/08 14:29:58;;;;;;;;;;;20.80;99.90;;;20.44;92.91;95905.06;10486595;28;1742;-83
2021/07/08 14:35:01;;;;;;;;;;;21.20;99.90;;;21.00;85.95;95888.38;10488125;28;2281;-80
2021/07/08 14:40:04;;;;;;;;;;;21.40;99.90;;;21.01;86.90;95874.38;10495906;28;2240;-79
2021/07/08 14:45:10;;;;;;;;;;;21.70;99.90;;;20.80;84.54;95868.13;10494699;28;2309;-79
2021/07/08 14:50:13;;;;;;;;;;;21.70;99.90;;;20.19;92.39;95854.22;10504729;28;2364;-79
2021/07/08 14:55:16;;;;;;;;;;;21.40;99.90;;;19.97;91.86;95847.13;10496261;28;2265;-79
2021/07/08 15:00:18;;;;;;;;;;;21.10;99.90;;;20.01;89.28;95842.63;10500649;28;2281;-81
2021/07/08 15:05:21;;;;;;;;;;;20.90;99.90;;;19.62;91.24;95852.81;10480918;28;2261;-81
2021/07/08 15:10:24;;;;;;;;;;;20.80;99.90;;;19.26;94.52;95845.09;10501340;28;2295;-82
2021/07/08 15:15:27;;;;;;;;;;;20.40;99.90;;;18.88;95.95;95878.53;10493886;28;2324;-81
2021/07/08 15:20:30;;;;;;;;;;;20.10;99.90;;;18.57;98.21;95911.38;10507752;28;2376;-80
2021/07/08 15:25:33;;;;;;;;;;;19.80;99.90;;;18.36;98.20;95921.31;10507945;28;2090;-80
2021/07/08 15:30:40;;;;;;;;;;;19.50;99.90;;;18.17;98.96;95923.53;10479409;28;2311;-79
2021/07/08 15:35:43;;;;;;;;;;;19.40;99.90;;;17.94;100.00;95901.09;10496113;28;2166;-82
2021/07/08 15:40:46;;;;;;;;;;;19.10;99.90;;;17.73;100.00;95893.53;10496031;28;2192;-81
2021/07/08 15:45:49;;;;;;;;;;;18.90;99.90;;;17.51;100.00;95908.00;10495927;28;2437;-80
2021/07/08 15:50:53;;;;;;;;;;;18.70;99.90;;;17.33;100.00;95954.44;10486051;28;2467;-78
2021/07/08 15:55:56;;;;;;;;;;;18.50;99.90;;;17.26;100.00;96031.75;10497325;28;2542;-81
2021/07/08 16:01:01;;;;;;;;;;;18.30;99.90;;;17.17;100.00;96030.06;10495914;28;1893;-82
2021/07/08 16:06:07;;;;;;;;;;;18.20;99.90;;;17.10;100.00;96010.69;10486183;28;2324;-79
2021/07/08 16:11:10;;;;;;;;;;;18.10;99.90;;;17.05;100.00;96008.09;10482627;28;1919;-81
2021/07/08 16:16:13;;;;;;;;;;;18.00;99.90;;;16.91;100.00;95983.72;10500181;28;2558;-78
2021/07/08 16:21:16;;;;;;;;;;;18.00;99.90;;;16.75;100.00;96003.09;10487884;28;2447;-80
2021/07/08 16:26:29;;;;;;;;;;;17.80;99.90;;;16.61;100.00;95969.75;10499405;28;2379;-80
2021/07/08 16:31:32;;;;;;;;;;;17.60;99.90;;;16.40;100.00;95985.66;10491586;28;2452;-80
2021/07/08 16:36:39;;;;;;;;;;;17.50;99.90;;;16.15;100.00;96011.44;10506302;28;2416;-81
2021/07/08 16:41:42;;;;;;;;;;;17.30;99.90;;;16.08;100.00;96021.88;10509257;28;1909;-79
2021/07/08 16:46:45;;;;;;;;;;;17.10;99.90;;;15.94;100.00;95980.44;10493813;28;1560;-81
2021/07/08 16:51:48;;;;;;;;;;;17.00;99.90;;;15.77;100.00;95959.34;10502680;28;1367;-82
2021/07/08 16:56:54;;;;;;;;;;;16.90;99.90;;;15.81;100.00;96046.28;10508634;28;1914;-80
2021/07/08 17:01:56;;;;;;;;;;;16.80;99.90;;;15.84;100.00;96056.53;10512995;28;1452;-79
2021/07/08 17:06:59;;;;;;;;;;;16.80;99.90;;;15.83;100.00;96060.34;10517424;28;1509;-82
2021/07/08 17:12:04;;;;;;;;;;;16.80;99.90;;;15.77;100.00;96020.88;10529422;28;1509;-79
2021/07/08 17:17:07;;;;;;;;;;;16.80;99.90;;;15.89;100.00;96015.75;10488045;28;1913;-82
2021/07/08 17:22:10;;;;;;;;;;;16.80;99.90;;;15.82;100.00;95970.09;10511496;28;1615;-83
2021/07/08 17:27:18;;;;;;;;;;;16.80;99.90;;;15.67;100.00;95954.94;10481765;28;1374;-81
2021/07/08 17:32:21;;;;;;;;;;;16.70;99.90;;;15.61;100.00;95912.75;10504732;28;1627;-82
2021/07/08 17:37:24;;;;;;;;;;;16.70;99.90;;;15.68;100.00;95896.13;10504358;28;1894;-83
2021/07/08 17:42:30;;;;;;;;;;;16.60;99.90;;;15.68;100.00;95934.88;10492055;28;2431;-82
2021/07/08 17:47:36;;;;;;;;;;;16.70;99.90;;;15.77;100.00;95937.66;10480762;28;2385;-81
2021/07/08 17:52:38;;;;;;;;;;;16.70;99.90;;;15.79;100.00;95983.47;10498668;28;2312;-80
2021/07/08 17:57:45;;;;;;;;;;;16.70;99.90;;;15.83;100.00;95984.44;10494477;28;2352;-80
2021/07/08 18:02:52;;;;;;;;;;;16.70;99.90;;;15.75;100.00;95979.72;10499775;28;2450;-80
2021/07/08 18:07:55;;;;;;;;;;;16.70;99.90;;;15.71;100.00;96003.09;10496433;28;2258;-82
2021/07/08 18:12:59;;;;;;;;;;;16.70;99.90;;;15.71;100.00;95990.34;10487035;28;2289;-81
2021/07/08 18:18:02;;;;;;;;;;;16.70;99.90;;;15.66;100.00;95988.56;10491401;28;2387;-82
2021/07/08 18:23:07;;;;;;;;;;;16.70;99.90;;;15.59;100.00;95990.03;10492410;28;2494;-81
2021/07/08 18:28:14;;;;;;;;;;;16.60;99.90;;;15.59;100.00;95985.44;10491536;28;2490;-82
2021/07/08 18:33:24;;;;;;;;;;;16.60;99.90;;;15.57;100.00;95998.44;10489785;28;2464;-81
2021/07/08 18:38:31;;;;;;;;;;;16.60;99.90;;;15.56;100.00;95999.56;10497617;28;2317;-80
2021/07/08 18:43:34;;;;;;;;;;;16.60;99.90;;;15.59;100.00;95998.97;10501199;28;2273;-80
2021/07/08 18:48:43;;;;;;;;;;;16.60;99.90;;;15.56;100.00;96021.22;10495729;28;2323;-83
2021/07/08 18:53:49;;;;;;;;;;;16.60;99.90;;;15.51;100.00;96021.31;10506442;28;2626;-81
2021/07/08 18:58:52;;;;;;;;;;;16.50;99.90;;;15.40;100.00;96003.66;10493314;28;2222;-83
2021/07/08 19:03:55;;;;;;;;;;;16.40;99.90;;;15.27;100.00;96004.41;10487166;28;2305;-83
2021/07/08 19:08:58;;;;;;;;;;;16.30;99.90;;;15.25;100.00;96028.28;10491463;28;2511;-83
2021/07/08 19:14:01;;;;;;;;;;;16.30;99.90;;;15.08;100.00;95985.53;10494867;28;2534;-81
2021/07/08 19:19:04;;;;;;;;;;;16.10;99.90;;;15.01;100.00;95964.25;10483916;28;2669;-83
2021/07/08 19:24:07;;;;;;;;;;;16.10;99.90;;;14.99;100.00;95955.63;10496064;28;2392;-81
2021/07/08 19:29:13;;;;;;;;;;;16.00;99.90;;;14.95;100.00;95976.28;10493585;28;2102;-82
2021/07/08 19:34:16;;;;;;;;;;;15.90;99.90;;;14.95;100.00;96002.53;10490933;28;2504;-82
2021/07/08 19:39:19;;;;;;;;;;;15.90;99.90;;;14.93;100.00;96015.56;10486989;28;2320;-84
2021/07/08 19:44:24;;;;;;;;;;;15.90;99.90;;;14.86;100.00;96005.09;10484406;28;2737;-80
2021/07/08 19:49:34;;;;;;;;;;;15.90;99.90;;;14.85;100.00;96019.75;10488988;28;2403;-81
2021/07/08 19:54:37;;;;;;;;;;;15.90;99.90;;;14.90;100.00;96011.53;10466015;28;2435;-82
2021/07/08 19:59:40;;;;;;;;;;;15.90;99.90;;;14.88;100.00;96019.13;10498599;28;2710;-83
2021/07/08 20:04:43;;;;;;;;;;;15.90;99.90;;;14.84;100.00;96035.19;10495718;28;2740;-81
2021/07/08 20:09:46;;;;;;;;;;;15.90;99.90;;;14.90;100.00;96054.84;10493653;28;3151;-81
2021/07/08 20:14:52;;;;;;;;;;;15.90;99.90;;;14.89;100.00;96069.47;10496066;28;2410;-81
2021/07/08 20:19:55;;;;;;;;;;;15.90;99.90;;;14.93;100.00;96075.91;10498273;28;2344;-80
2021/07/08 20:25:01;;;;;;;;;;;15.90;99.90;;;14.94;100.00;96055.84;10487708;28;2346;-80
2021/07/08 20:30:06;;;;;;;;;;;15.90;99.90;;;14.88;100.00;96048.91;10501452;28;2282;-80
2021/07/08 20:35:10;;;;;;;;;;;15.90;99.90;;;14.88;100.00;96043.50;10506033;28;2285;-78
2021/07/08 20:40:13;;;;;;;;;;;15.90;99.90;;;14.87;100.00;96045.41;10507920;28;2486;-82
2021/07/08 20:45:16;;;;;;;;;;;15.90;99.90;;;14.92;100.00;96052.66;10503089;28;2350;-80
2021/07/08 20:50:19;;;;;;;;;;;15.90;99.90;;;14.92;100.00;96049.94;10497484;28;2304;-82
2021/07/08 20:55:22;;;;;;;;;;;15.90;99.90;;;14.91;100.00;96051.03;10495508;28;2368;-82
2021/07/08 21:00:25;;;;;;;;;;;15.90;99.90;;;14.86;100.00;96064.63;10493303;28;2467;-80
2021/07/08 21:05:27;;;;;;;;;;;15.90;99.90;;;14.85;100.00;96071.97;10503165;28;2309;-82
2021/07/08 21:10:30;;;;;;;;;;;15.90;99.90;;;14.81;100.00;96083.66;10500253;28;2482;-81
2021/07/08 21:15:35;;;;;;;;;;;15.80;99.90;;;14.77;100.00;96104.31;10495991;28;2340;-80
2021/07/08 21:20:38;;;;;;;;;;;15.80;99.90;;;14.80;100.00;96109.13;10495151;28;2447;-81
2021/07/08 21:25:41;;;;;;;;;;;15.80;99.90;;;14.82;100.00;96107.75;10507717;28;2400;-82
2021/07/08 21:30:44;;;;;;;;;;;15.80;99.90;;;14.81;100.00;96111.53;10475338;28;2325;-81
2021/07/08 21:35:46;;;;;;;;;;;15.80;99.90;;;14.82;100.00;96123.16;10496121;28;2320;-81
2021/07/08 21:40:49;;;;;;;;;;;15.80;99.90;;;14.84;100.00;96123.69;10507071;28;2690;-83
2021/07/08 21:46:09;;;;;;;;;;;15.80;99.90;;;14.84;100.00;96134.50;10494616;28;2407;-81
2021/07/08 21:51:14;;;;;;;;;;;15.80;99.90;;;14.80;100.00;96128.06;10488335;28;2630;-80
2021/07/08 21:56:29;;;;;;;;;;;15.80;99.90;;;14.79;100.00;96112.91;10496508;28;2384;-81
2021/07/08 22:01:33;;;;;;;;;;;15.80;99.90;;;14.77;100.00;96098.88;10493202;28;2309;-80
2021/07/08 22:06:38;;;;;;;;;;;15.80;99.90;;;14.74;100.00;96080.50;10512519;28;2408;-80
2021/07/08 22:11:45;;;;;;;;;;;15.70;99.90;;;14.66;100.00;96037.88;10497436;28;2512;-82
2021/07/08 22:17:08;;;;;;;;;;;15.70;99.90;;;14.60;100.00;95973.03;10536309;28;2427;-80
2021/07/08 22:22:31;;;;;;;;;;;15.70;99.90;;;14.47;100.00;95881.00;10530137;28;2390;-81
2021/07/08 22:27:55;;;;;;;;;;;15.60;99.90;;;14.12;100.00;95752.56;10530086;28;1941;-81
2021/07/08 22:32:57;;;;;;;;;;;15.30;99.90;;;14.17;100.00;95866.03;10529577;28;2355;-82
2021/07/08 22:38:00;;;;;;;;;;;15.10;99.90;;;14.43;100.00;95966.50;10487938;28;1985;-82
2021/07/08 22:43:03;;;;;;;;;;;15.30;99.90;;;14.49;100.00;95963.44;10500647;28;2791;-82
2021/07/08 22:48:23;;;;;;;;;;;15.40;99.90;;;14.45;100.00;95951.59;10492297;28;2360;-83
2021/07/08 22:53:27;;;;;;;;;;;15.50;99.90;;;14.28;100.00;95943.19;10493564;28;2416;-81
2021/07/08 22:58:29;;;;;;;;;;;15.40;99.90;;;14.23;100.00;95944.06;10489753;28;2194;-82
2021/07/08 23:03:34;;;;;;;;;;;15.30;99.90;;;14.16;100.00;95940.13;10487240;28;1942;-81
2021/07/08 23:08:36;;;;;;;;;;;15.30;99.90;;;14.20;100.00;95952.78;10481525;28;2435;-81